createdAt,value
2022-08-27T00:02:08.584Z,13.03
2022-08-27T00:04:38.129Z,13.40
2022-08-27T00:07:06.783Z,13.07
2022-08-27T00:09:35.634Z,13.93
2022-08-27T00:12:06.510Z,13.10
2022-08-27T00:14:35.356Z,13.27
2022-08-27T00:17:04.010Z,14.73
2022-08-27T00:19:32.216Z,13.50
2022-08-27T00:22:00.412Z,15.10
2022-08-27T00:24:28.726Z,16.60
2022-08-27T00:26:57.675Z,16.23
2022-08-27T00:29:27.269Z,16.00
2022-08-27T00:31:59.841Z,16.17
2022-08-27T00:34:28.631Z,16.80
2022-08-27T00:36:56.811Z,16.23
2022-08-27T00:39:25.379Z,16.30
2022-08-27T00:41:53.541Z,16.03
2022-08-27T00:44:21.930Z,16.60
2022-08-27T00:46:54.949Z,14.80
2022-08-27T00:49:28.014Z,15.70
2022-08-27T00:51:59.183Z,15.77
2022-08-27T00:54:29.300Z,15.13
2022-08-27T00:57:00.873Z,14.17
2022-08-27T00:59:31.127Z,15.13
2022-08-27T01:02:22.247Z,13.80
2022-08-27T01:04:55.487Z,15.33
2022-08-27T01:07:28.626Z,15.87
2022-08-27T01:10:00.249Z,16.83
2022-08-27T01:12:29.365Z,16.73
2022-08-27T01:14:57.566Z,16.50
2022-08-27T01:17:27.579Z,16.87
2022-08-27T01:19:59.726Z,17.63
2022-08-27T01:22:35.579Z,17.70
2022-08-27T01:25:09.335Z,16.77
2022-08-27T01:27:38.037Z,17.70
2022-08-27T01:30:09.457Z,18.23
2022-08-27T01:32:38.634Z,17.73
2022-08-27T01:35:10.274Z,17.80
2022-08-27T01:37:39.155Z,16.73
2022-08-27T01:40:11.323Z,17.47
2022-08-27T01:42:44.812Z,18.13
2022-08-27T01:45:16.625Z,16.73
2022-08-27T01:47:44.867Z,17.20
2022-08-27T01:50:15.633Z,17.23
2022-08-27T01:52:44.845Z,17.00
2022-08-27T01:55:16.468Z,17.27
2022-08-27T01:57:45.046Z,16.90
2022-08-27T02:00:18.295Z,18.27
2022-08-27T02:02:47.115Z,15.40
2022-08-27T02:05:16.413Z,15.93
2022-08-27T02:07:45.243Z,17.10
2022-08-27T02:10:17.753Z,16.83
2022-08-27T02:12:46.529Z,15.93
2022-08-27T02:15:15.357Z,17.90
2022-08-27T02:17:43.566Z,17.53
2022-08-27T02:20:12.290Z,17.13
2022-08-27T02:22:40.607Z,19.87
2022-08-27T02:25:12.215Z,18.10
2022-08-27T02:27:42.955Z,17.20
2022-08-27T02:30:13.653Z,19.00
2022-08-27T02:32:41.950Z,20.30
2022-08-27T02:35:10.460Z,20.20
2022-08-27T02:37:38.622Z,21.17
2022-08-27T02:40:08.577Z,21.33
2022-08-27T02:42:36.790Z,21.07
2022-08-27T02:45:08.011Z,22.43
2022-08-27T02:47:36.819Z,24.63
2022-08-27T02:50:05.781Z,25.27
2022-08-27T02:52:34.006Z,26.47
2022-08-27T02:55:02.700Z,26.83
2022-08-27T02:57:31.372Z,26.27
2022-08-27T03:00:11.347Z,25.83
2022-08-27T03:02:40.008Z,28.53
2022-08-27T03:05:09.936Z,29.37
2022-08-27T03:07:38.263Z,27.60
2022-08-27T03:10:07.905Z,27.90
2022-08-27T03:12:36.564Z,29.90
2022-08-27T03:15:07.387Z,34.37
2022-08-27T03:17:53.838Z,34.23
2022-08-27T03:20:22.818Z,34.13
2022-08-27T03:22:50.999Z,36.50
2022-08-27T03:25:19.267Z,37.53
2022-08-27T03:27:47.555Z,39.70
2022-08-27T03:30:20.295Z,37.80
2022-08-27T03:32:48.826Z,37.60
2022-08-27T03:35:17.549Z,39.97
2022-08-27T03:37:45.981Z,41.87
2022-08-27T03:40:15.517Z,36.03
2022-08-27T03:42:44.082Z,40.37
2022-08-27T03:45:13.272Z,40.57
2022-08-27T03:47:43.224Z,41.10
2022-08-27T03:50:12.025Z,39.13
2022-08-27T03:52:40.187Z,41.60
2022-08-27T03:55:10.028Z,40.47
2022-08-27T03:57:38.271Z,43.27
2022-08-27T04:00:08.835Z,42.20
2022-08-27T04:02:41.073Z,43.27
2022-08-27T04:05:13.738Z,38.77
2022-08-27T04:07:43.226Z,39.47
2022-08-27T04:10:13.800Z,38.63
2022-08-27T04:12:42.652Z,35.80
2022-08-27T04:15:13.545Z,36.93
2022-08-27T04:17:42.493Z,37.30
2022-08-27T04:20:34.613Z,40.30
2022-08-27T04:23:01.546Z,35.83
2022-08-27T04:25:29.857Z,35.27
2022-08-27T04:27:58.063Z,34.07
2022-08-27T04:30:26.592Z,35.93
2022-08-27T04:32:54.793Z,34.77
2022-08-27T04:35:24.336Z,35.47
2022-08-27T04:37:52.665Z,32.63
2022-08-27T04:40:20.946Z,31.43
2022-08-27T04:42:49.154Z,34.33
2022-08-27T04:45:17.444Z,33.83
2022-08-27T04:47:45.606Z,32.80
2022-08-27T04:50:13.867Z,32.23
2022-08-27T04:52:44.323Z,37.50
2022-08-27T04:55:12.518Z,33.30
2022-08-27T04:57:40.707Z,36.63
2022-08-27T05:00:12.441Z,33.43
2022-08-27T05:02:40.594Z,35.23
2022-08-27T05:05:12.039Z,35.70
2022-08-27T05:07:45.915Z,38.03
2022-08-27T05:10:14.088Z,35.23
2022-08-27T05:12:42.580Z,34.90
2022-08-27T05:15:11.951Z,36.47
2022-08-27T05:17:40.119Z,35.67
2022-08-27T05:20:09.726Z,34.37
2022-08-27T05:22:37.896Z,37.00
2022-08-27T05:25:08.974Z,36.03
2022-08-27T05:27:37.147Z,37.60
2022-08-27T05:30:05.981Z,39.20
2022-08-27T05:32:34.143Z,36.30
2022-08-27T05:35:02.443Z,37.40
2022-08-27T05:37:30.621Z,34.70
2022-08-27T05:39:59.047Z,34.23
2022-08-27T05:42:31.391Z,34.20
2022-08-27T05:44:59.947Z,31.90
2022-08-27T05:47:28.143Z,32.47
2022-08-27T05:49:56.610Z,33.97
2022-08-27T05:52:24.823Z,32.40
2022-08-27T05:54:53.022Z,34.00
2022-08-27T05:57:21.218Z,34.40
2022-08-27T06:00:08.228Z,33.37
2022-08-27T06:02:44.162Z,35.20
2022-08-27T06:05:12.555Z,33.50
2022-08-27T06:07:40.806Z,33.83
2022-08-27T06:10:10.617Z,33.27
2022-08-27T06:12:39.044Z,33.67
2022-08-27T06:15:09.446Z,36.70
2022-08-27T06:17:37.644Z,34.83
2022-08-27T06:20:06.341Z,37.60
2022-08-27T06:22:34.524Z,37.53
2022-08-27T06:25:02.782Z,39.23
2022-08-27T06:27:30.950Z,41.10
2022-08-27T06:29:59.114Z,39.20
2022-08-27T06:32:28.793Z,39.60
2022-08-27T06:34:57.191Z,38.10
2022-08-27T06:37:25.434Z,41.07
2022-08-27T06:39:53.828Z,38.97
2022-08-27T06:42:22.079Z,39.60
2022-08-27T06:44:54.681Z,40.40
2022-08-27T06:47:22.858Z,38.23
2022-08-27T06:49:52.363Z,35.13
2022-08-27T06:52:20.566Z,34.30
2022-08-27T06:54:48.725Z,36.23
2022-08-27T06:57:17.131Z,33.73
2022-08-27T06:59:45.444Z,33.27
2022-08-27T07:02:13.649Z,33.57
2022-08-27T07:04:41.837Z,32.33
2022-08-27T07:07:13.815Z,30.97
2022-08-27T07:09:42.028Z,29.97
2022-08-27T07:12:10.664Z,30.57
2022-08-27T07:14:38.996Z,29.37
2022-08-27T07:17:10.939Z,30.10
2022-08-27T07:19:40.770Z,28.10
2022-08-27T07:22:11.205Z,27.80
2022-08-27T07:24:40.038Z,26.37
2022-08-27T07:27:08.899Z,25.40
2022-08-27T07:29:37.102Z,27.30
2022-08-27T07:32:05.655Z,24.97
2022-08-27T07:34:34.067Z,27.50
2022-08-27T07:37:02.247Z,25.70
2022-08-27T07:39:31.891Z,24.87
2022-08-27T07:42:17.962Z,26.27
2022-08-27T07:44:46.177Z,27.60
2022-08-27T07:47:14.463Z,24.40
2022-08-27T07:49:42.628Z,23.67
2022-08-27T07:52:11.352Z,23.00
2022-08-27T07:54:41.441Z,24.07
2022-08-27T07:57:10.090Z,25.03
2022-08-27T07:59:39.092Z,25.37
2022-08-27T08:02:07.691Z,23.30
2022-08-27T08:04:36.001Z,24.63
2022-08-27T08:07:04.476Z,24.73
2022-08-27T08:09:33.796Z,23.43
2022-08-27T08:12:03.638Z,25.27
2022-08-27T08:14:32.471Z,24.57
2022-08-27T08:17:02.021Z,25.40
2022-08-27T08:19:32.018Z,25.30
2022-08-27T08:22:05.327Z,24.87
2022-08-27T08:24:34.922Z,23.33
2022-08-27T08:27:07.471Z,22.37
2022-08-27T08:29:37.636Z,22.00
2022-08-27T08:32:06.594Z,21.93
2022-08-27T08:34:36.783Z,21.23
2022-08-27T08:37:06.646Z,21.67
2022-08-27T08:39:36.834Z,19.47
2022-08-27T08:42:10.243Z,19.07
2022-08-27T08:44:43.115Z,18.47
2022-08-27T08:47:15.941Z,19.80
2022-08-27T08:49:50.717Z,17.97
2022-08-27T08:52:31.413Z,17.87
2022-08-27T08:55:09.913Z,17.00
2022-08-27T08:57:44.587Z,16.33
2022-08-27T09:00:15.231Z,19.60
2022-08-27T09:02:50.537Z,19.37
2022-08-27T09:05:18.892Z,20.00
2022-08-27T09:08:28.618Z,17.70
2022-08-27T09:10:49.023Z,18.30
2022-08-27T09:13:24.186Z,17.77
2022-08-27T09:15:58.210Z,17.00
2022-08-27T09:18:28.097Z,17.17
2022-08-27T09:21:08.909Z,15.30
2022-08-27T09:23:45.938Z,16.73
2022-08-27T09:26:20.156Z,18.27
2022-08-27T09:29:07.241Z,15.80
2022-08-27T09:31:40.889Z,15.50
2022-08-27T09:34:09.420Z,15.47
2022-08-27T09:36:49.945Z,16.67
2022-08-27T09:39:18.226Z,16.00
2022-08-27T09:41:48.983Z,15.50
2022-08-27T09:44:22.830Z,16.50
2022-08-27T09:46:56.986Z,16.00
2022-08-27T09:49:25.270Z,16.17
2022-08-27T09:51:54.833Z,16.17
2022-08-27T09:54:34.122Z,15.20
2022-08-27T09:57:02.318Z,14.67
2022-08-27T09:59:35.706Z,13.70
2022-08-27T10:02:11.919Z,14.40
2022-08-27T10:04:51.170Z,14.57
2022-08-27T10:07:27.039Z,14.50
2022-08-27T10:10:01.495Z,14.47
2022-08-27T10:12:36.827Z,13.77
2022-08-27T10:15:08.875Z,14.20
2022-08-27T10:17:47.194Z,14.53
2022-08-27T10:20:30.675Z,14.20
2022-08-27T10:23:12.498Z,14.73
2022-08-27T10:25:53.846Z,13.33
2022-08-27T10:28:36.840Z,12.40
2022-08-27T10:31:22.479Z,12.10
2022-08-27T10:34:04.755Z,11.83
2022-08-27T10:36:45.418Z,13.33
2022-08-27T10:39:23.692Z,12.97
2022-08-27T10:42:05.239Z,13.90
2022-08-27T10:44:46.507Z,11.97
2022-08-27T10:47:29.534Z,11.60
2022-08-27T10:50:03.752Z,13.83
2022-08-27T10:52:39.608Z,12.77
2022-08-27T10:55:14.009Z,13.60
2022-08-27T10:58:01.436Z,12.97
2022-08-27T11:00:41.051Z,13.20
2022-08-27T11:03:15.218Z,14.20
2022-08-27T11:05:46.159Z,15.70
2022-08-27T11:08:19.566Z,13.50
2022-08-27T11:10:50.395Z,13.00
2022-08-27T11:13:24.372Z,13.03
2022-08-27T11:15:55.929Z,13.20
2022-08-27T11:18:38.597Z,13.40
2022-08-27T11:21:14.462Z,12.60
2022-08-27T11:23:45.778Z,10.90
2022-08-27T11:26:14.198Z,11.73
2022-08-27T11:28:45.300Z,11.90
2022-08-27T11:31:21.083Z,12.00
2022-08-27T11:33:59.596Z,11.17
2022-08-27T11:37:02.699Z,11.87
2022-08-27T11:39:52.215Z,11.20
2022-08-27T11:42:34.584Z,10.87
2022-08-27T11:45:07.607Z,11.40
2022-08-27T11:47:38.800Z,11.23
2022-08-27T11:50:19.414Z,11.33
2022-08-27T11:52:57.882Z,11.57
2022-08-27T11:55:29.362Z,10.50
2022-08-27T11:58:08.431Z,10.60
2022-08-27T12:00:39.337Z,10.83
2022-08-27T12:03:10.500Z,10.10
2022-08-27T12:05:44.544Z,9.83
2022-08-27T12:08:30.034Z,10.30
2022-08-27T12:11:20.880Z,8.60
2022-08-27T12:13:58.167Z,10.30
2022-08-27T12:16:33.503Z,8.80
2022-08-27T12:19:19.655Z,9.77
2022-08-27T12:22:05.512Z,9.30
2022-08-27T12:24:42.904Z,9.47
2022-08-27T12:27:18.208Z,9.20
2022-08-27T12:29:51.084Z,9.50
2022-08-27T12:32:29.867Z,9.60
2022-08-27T12:35:10.816Z,9.80
2022-08-27T12:37:46.375Z,9.67
2022-08-27T12:40:20.836Z,9.33
2022-08-27T12:43:04.435Z,9.40
2022-08-27T12:45:32.622Z,9.57
2022-08-27T12:48:01.131Z,9.87
2022-08-27T12:50:31.046Z,8.97
2022-08-27T12:53:12.618Z,9.73
2022-08-27T12:56:01.250Z,9.33
2022-08-27T12:58:42.809Z,9.00
2022-08-27T13:01:25.200Z,9.63
2022-08-27T13:03:55.881Z,9.10
2022-08-27T13:06:29.318Z,9.20
2022-08-27T13:09:01.713Z,8.80
2022-08-27T13:11:31.822Z,9.90
2022-08-27T13:14:09.297Z,9.03
2022-08-27T13:16:40.046Z,10.03
2022-08-27T13:19:08.921Z,9.30
2022-08-27T13:21:37.641Z,9.50
2022-08-27T13:24:07.898Z,9.77
2022-08-27T13:26:39.026Z,8.43
2022-08-27T13:29:08.521Z,9.60
2022-08-27T13:31:37.728Z,8.50
2022-08-27T13:34:07.366Z,9.50
2022-08-27T13:36:38.122Z,9.27
2022-08-27T13:39:08.423Z,9.87
2022-08-27T13:41:38.507Z,9.40
2022-08-27T13:44:09.661Z,9.73
2022-08-27T13:46:47.073Z,10.93
2022-08-27T13:49:19.210Z,9.40
2022-08-27T13:51:48.307Z,9.33
2022-08-27T13:54:19.735Z,8.70
2022-08-27T13:57:08.033Z,9.83
2022-08-27T13:59:42.126Z,9.30
2022-08-27T14:02:27.009Z,10.17
2022-08-27T14:05:09.700Z,9.00
2022-08-27T14:07:41.437Z,10.00
2022-08-27T14:10:30.621Z,9.80
2022-08-27T14:13:01.271Z,10.53
2022-08-27T14:15:34.608Z,9.20
2022-08-27T14:18:04.752Z,10.50
2022-08-27T14:20:33.635Z,10.27
2022-08-27T14:23:02.583Z,10.20
2022-08-27T14:25:34.495Z,10.03
2022-08-27T14:28:02.998Z,10.87
2022-08-27T14:30:31.413Z,10.90
2022-08-27T14:33:01.235Z,10.40
2022-08-27T14:35:32.283Z,10.70
2022-08-27T14:38:04.180Z,12.67
2022-08-27T14:40:33.795Z,12.10
2022-08-27T14:43:02.018Z,10.27
2022-08-27T14:45:30.304Z,10.40
2022-08-27T14:48:02.094Z,10.53
2022-08-27T14:50:30.674Z,10.63
2022-08-27T14:52:58.856Z,9.60
2022-08-27T14:55:27.690Z,9.43
2022-08-27T14:57:57.260Z,11.90
2022-08-27T15:00:25.760Z,9.90
2022-08-27T15:02:55.331Z,9.90
2022-08-27T15:05:24.931Z,10.80
2022-08-27T15:07:54.701Z,10.87
2022-08-27T15:10:22.886Z,11.57
2022-08-27T15:12:51.150Z,10.90
2022-08-27T15:15:21.118Z,10.40
2022-08-27T15:17:49.740Z,10.60
2022-08-27T15:20:20.415Z,10.03
2022-08-27T15:22:51.828Z,10.13
2022-08-27T15:25:21.750Z,9.90
2022-08-27T15:27:50.243Z,9.57
2022-08-27T15:30:24.339Z,9.50
2022-08-27T15:32:52.731Z,10.10
2022-08-27T15:35:26.501Z,9.70
2022-08-27T15:37:56.680Z,10.57
2022-08-27T15:40:26.616Z,9.27
2022-08-27T15:42:58.998Z,9.63
2022-08-27T15:45:29.237Z,9.70
2022-08-27T15:47:58.239Z,9.13
2022-08-27T15:50:28.471Z,10.10
2022-08-27T15:53:00.521Z,10.43
2022-08-27T15:55:32.096Z,9.67
2022-08-27T15:58:01.349Z,10.00
2022-08-27T16:00:33.633Z,10.30
2022-08-27T16:03:03.186Z,9.80
2022-08-27T16:05:36.719Z,9.83
2022-08-27T16:08:05.968Z,9.80
2022-08-27T16:10:35.263Z,8.70
2022-08-27T16:13:03.552Z,9.33
2022-08-27T16:15:34.831Z,9.33
2022-08-27T16:18:04.610Z,8.50
2022-08-27T16:20:32.755Z,8.60
2022-08-27T16:23:01.513Z,10.10
2022-08-27T16:25:30.214Z,9.47
2022-08-27T16:28:00.971Z,8.20
2022-08-27T16:30:29.382Z,7.60
2022-08-27T16:32:58.924Z,9.70
2022-08-27T16:35:27.275Z,9.20
2022-08-27T16:37:55.407Z,10.07
2022-08-27T16:40:23.658Z,9.27
2022-08-27T16:42:53.138Z,9.03
2022-08-27T16:45:23.593Z,9.50
2022-08-27T16:48:09.900Z,9.73
2022-08-27T16:50:40.793Z,9.90
2022-08-27T16:53:13.184Z,10.30
2022-08-27T16:55:43.442Z,9.97
2022-08-27T16:58:16.623Z,8.70
2022-08-27T17:00:45.907Z,9.40
2022-08-27T17:03:14.735Z,9.10
2022-08-27T17:05:44.301Z,9.60
2022-08-27T17:08:13.475Z,9.63
2022-08-27T17:10:46.428Z,10.23
2022-08-27T17:13:17.284Z,10.90
2022-08-27T17:15:50.824Z,11.20
2022-08-27T17:18:22.032Z,11.63
2022-08-27T17:20:52.644Z,10.30
2022-08-27T17:23:23.759Z,10.17
2022-08-27T17:25:52.501Z,10.90
2022-08-27T17:28:20.867Z,10.70
2022-08-27T17:30:49.409Z,10.90
2022-08-27T17:33:23.739Z,12.27
2022-08-27T17:35:53.390Z,12.50
2022-08-27T17:38:21.627Z,12.00
2022-08-27T17:40:52.225Z,15.83
2022-08-27T17:43:21.211Z,13.50
2022-08-27T17:45:50.202Z,11.73
2022-08-27T17:48:22.666Z,13.77
2022-08-27T17:50:55.122Z,14.73
2022-08-27T17:53:23.374Z,14.53
2022-08-27T17:55:51.632Z,14.70
2022-08-27T17:58:20.277Z,14.90
2022-08-27T18:00:48.559Z,14.33
2022-08-27T18:03:20.956Z,15.13
2022-08-27T18:05:49.463Z,15.40
2022-08-27T18:08:20.678Z,14.90
2022-08-27T18:10:49.076Z,15.80
2022-08-27T18:13:18.304Z,14.33
2022-08-27T18:15:47.003Z,14.70
2022-08-27T18:18:15.954Z,15.37
2022-08-27T18:20:44.154Z,14.23
2022-08-27T18:23:13.297Z,17.50
2022-08-27T18:25:44.804Z,16.90
2022-08-27T18:28:14.902Z,16.97
2022-08-27T18:30:44.581Z,15.03
2022-08-27T18:33:13.356Z,16.30
2022-08-27T18:35:42.683Z,14.37
2022-08-27T18:38:10.966Z,15.97
2022-08-27T18:40:42.750Z,13.87
2022-08-27T18:43:12.699Z,15.30
2022-08-27T18:45:40.981Z,15.57
2022-08-27T18:48:13.986Z,16.07
2022-08-27T18:50:46.295Z,15.33
2022-08-27T18:53:17.071Z,16.83
2022-08-27T18:55:45.326Z,17.60
2022-08-27T18:58:15.256Z,18.00
2022-08-27T19:00:47.296Z,16.40
2022-08-27T19:03:21.911Z,17.10
2022-08-27T19:05:54.789Z,17.83
2022-08-27T19:08:24.742Z,16.57
2022-08-27T19:10:52.912Z,18.50
2022-08-27T19:13:22.482Z,17.80
2022-08-27T19:15:54.738Z,16.90
2022-08-27T19:18:24.811Z,18.17
2022-08-27T19:20:53.619Z,19.10
2022-08-27T19:23:22.292Z,19.07
2022-08-27T19:25:52.485Z,17.53
2022-08-27T19:28:26.674Z,19.03
2022-08-27T19:30:55.528Z,18.30
2022-08-27T19:33:24.089Z,18.53
2022-08-27T19:35:52.270Z,17.70
2022-08-27T19:38:20.605Z,15.40
2022-08-27T19:40:48.759Z,15.60
2022-08-27T19:43:16.940Z,14.27
2022-08-27T19:45:47.199Z,14.93
2022-08-27T19:48:17.483Z,14.70
2022-08-27T19:50:46.035Z,14.67
2022-08-27T19:53:15.148Z,13.67
2022-08-27T19:55:45.429Z,12.50
2022-08-27T19:58:14.841Z,12.10
2022-08-27T20:00:44.817Z,14.07
2022-08-27T20:03:14.480Z,12.70
2022-08-27T20:05:42.866Z,13.00
2022-08-27T20:08:12.863Z,12.13
2022-08-27T20:10:41.944Z,12.80
2022-08-27T20:13:10.680Z,10.23
2022-08-27T20:15:40.602Z,11.20
2022-08-27T20:18:09.284Z,12.13
2022-08-27T20:20:38.861Z,9.33
2022-08-27T20:23:07.626Z,9.30
2022-08-27T20:25:37.532Z,9.50
2022-08-27T20:28:28.258Z,7.87
2022-08-27T20:30:58.191Z,7.43
2022-08-27T20:33:26.984Z,6.80
2022-08-27T20:35:57.446Z,7.17
2022-08-27T20:38:25.878Z,5.70
2022-08-27T20:40:54.165Z,6.10
2022-08-27T20:43:22.457Z,6.23
2022-08-27T20:45:50.742Z,4.57
2022-08-27T20:48:19.296Z,4.97
2022-08-27T20:50:47.858Z,4.53
2022-08-27T20:53:17.421Z,4.50
2022-08-27T20:55:45.763Z,5.47
2022-08-27T20:58:31.878Z,4.80
2022-08-27T21:01:00.944Z,4.97
2022-08-27T21:03:29.298Z,4.27
2022-08-27T21:05:57.595Z,3.30
2022-08-27T21:08:27.562Z,3.87
2022-08-27T21:10:58.216Z,3.33
2022-08-27T21:13:28.038Z,3.33
2022-08-27T21:15:56.662Z,3.60
2022-08-27T21:18:29.970Z,2.90
2022-08-27T21:20:58.721Z,3.43
2022-08-27T21:23:29.106Z,3.77
2022-08-27T21:26:01.507Z,3.70
2022-08-27T21:28:30.515Z,3.00
2022-08-27T21:30:59.023Z,3.70
2022-08-27T21:33:27.398Z,2.60
2022-08-27T21:35:55.574Z,2.70
2022-08-27T21:38:23.743Z,3.50
2022-08-27T21:40:53.279Z,2.97
2022-08-27T21:43:21.526Z,3.20
2022-08-27T21:45:49.694Z,3.00
2022-08-27T21:48:17.851Z,2.60
2022-08-27T21:50:46.328Z,3.40
2022-08-27T21:53:17.002Z,2.80
2022-08-27T21:55:45.507Z,3.10
2022-08-27T21:58:15.379Z,3.10
2022-08-27T22:00:47.569Z,3.37
2022-08-27T22:03:17.711Z,3.70
2022-08-27T22:05:46.121Z,2.80
2022-08-27T22:08:16.933Z,3.07
2022-08-27T22:10:47.588Z,3.70
2022-08-27T22:13:17.317Z,3.80
2022-08-27T22:15:46.457Z,3.27
2022-08-27T22:18:15.526Z,3.27
2022-08-27T22:20:44.372Z,3.23
2022-08-27T22:23:13.670Z,3.00
2022-08-27T22:25:42.982Z,3.07
2022-08-27T22:28:12.113Z,3.43
2022-08-27T22:30:42.000Z,3.67
2022-08-27T22:33:10.418Z,4.10
2022-08-27T22:35:38.873Z,4.63
2022-08-27T22:38:07.525Z,3.67
2022-08-27T22:40:37.654Z,4.33
2022-08-27T22:43:06.325Z,4.33
2022-08-27T22:45:34.855Z,4.10
2022-08-27T22:48:05.100Z,4.10
2022-08-27T22:50:33.299Z,4.93
2022-08-27T22:53:01.612Z,4.80
2022-08-27T22:55:30.614Z,4.83
2022-08-27T22:57:58.873Z,5.30
2022-08-27T23:00:30.380Z,5.13
2022-08-27T23:02:58.986Z,4.90
2022-08-27T23:05:40.399Z,4.40
2022-08-27T23:08:13.299Z,4.87
2022-08-27T23:10:42.890Z,5.13
2022-08-27T23:13:12.494Z,5.20
2022-08-27T23:15:41.527Z,6.43
2022-08-27T23:18:10.304Z,5.93
2022-08-27T23:20:39.885Z,5.47
2022-08-27T23:23:10.072Z,5.47
2022-08-27T23:25:56.363Z,5.80
2022-08-27T23:28:24.561Z,5.63
2022-08-27T23:30:53.115Z,6.40
2022-08-27T23:33:22.204Z,6.23
2022-08-27T23:35:51.937Z,6.23
2022-08-27T23:38:21.973Z,5.60
2022-08-27T23:40:50.939Z,6.40
2022-08-27T23:43:19.522Z,6.37
2022-08-27T23:45:49.115Z,7.03
2022-08-27T23:48:17.333Z,6.60
2022-08-27T23:50:45.743Z,6.93
2022-08-27T23:53:15.289Z,7.13
2022-08-27T23:55:43.459Z,6.50
2022-08-27T23:58:12.153Z,7.50
